createdAt,value
2023-05-07T00:00:41.316Z,97427.88
2023-05-07T00:03:09.578Z,97423.88
2023-05-07T00:05:38.873Z,97415.03
2023-05-07T00:08:07.225Z,97406.91
2023-05-07T00:10:35.884Z,97395.72
2023-05-07T00:13:05.600Z,97396.81
2023-05-07T00:15:33.780Z,97389.00
2023-05-07T00:18:02.097Z,97390.53
2023-05-07T00:20:30.374Z,97382.00
2023-05-07T00:22:58.834Z,97370.06
2023-05-07T00:25:27.097Z,97359.63
2023-05-07T00:27:55.857Z,97371.72
2023-05-07T00:30:25.543Z,97402.09
2023-05-07T00:32:53.884Z,97408.56
2023-05-07T00:35:22.182Z,97405.22
2023-05-07T00:37:50.821Z,97409.75
2023-05-07T00:40:19.149Z,97410.59
2023-05-07T00:42:48.166Z,97402.78
2023-05-07T00:45:16.757Z,97415.88
2023-05-07T00:47:46.292Z,97413.53
2023-05-07T00:50:15.059Z,97418.03
2023-05-07T00:52:43.723Z,97417.34
2023-05-07T00:55:13.071Z,97424.41
2023-05-07T00:57:42.789Z,97412.03
2023-05-07T01:00:14.108Z,97416.00
2023-05-07T01:02:42.781Z,97414.47
2023-05-07T01:05:15.452Z,97408.25
2023-05-07T01:07:44.700Z,97406.25
2023-05-07T01:10:13.767Z,97407.28
2023-05-07T01:12:43.607Z,97411.03
2023-05-07T01:15:12.294Z,97410.13
2023-05-07T01:17:43.680Z,97414.22
2023-05-07T01:20:23.339Z,97408.09
2023-05-07T01:22:55.607Z,97410.47
2023-05-07T01:25:24.271Z,97398.34
2023-05-07T01:27:55.186Z,97398.19
2023-05-07T01:30:28.483Z,97391.44
2023-05-07T01:33:01.444Z,97394.88
2023-05-07T01:35:42.931Z,97392.84
2023-05-07T01:38:12.707Z,97390.00
2023-05-07T01:40:41.158Z,97389.13
2023-05-07T01:43:09.513Z,97394.66
2023-05-07T01:45:38.885Z,97395.94
2023-05-07T01:48:07.843Z,97391.34
2023-05-07T01:50:37.201Z,97396.94
2023-05-07T01:53:05.482Z,97400.91
2023-05-07T01:55:35.045Z,97400.47
2023-05-07T01:58:03.541Z,97400.16
2023-05-07T02:00:31.969Z,97404.94
2023-05-07T02:03:00.466Z,97404.84
2023-05-07T02:05:40.117Z,97402.47
2023-05-07T02:08:17.935Z,97399.84
2023-05-07T02:10:47.626Z,97398.44
2023-05-07T02:13:15.971Z,97395.59
2023-05-07T02:15:45.730Z,97397.22
2023-05-07T02:18:13.873Z,97386.19
2023-05-07T02:20:42.027Z,97399.75
2023-05-07T02:23:10.282Z,97396.00
2023-05-07T02:25:38.911Z,97396.81
2023-05-07T02:28:08.583Z,97398.44
2023-05-07T02:30:56.215Z,97402.94
2023-05-07T02:33:24.528Z,97411.63
2023-05-07T02:35:53.027Z,97402.00
2023-05-07T02:38:21.208Z,97411.97
2023-05-07T02:40:49.543Z,97406.13
2023-05-07T02:43:19.726Z,97399.13
2023-05-07T02:45:50.203Z,97393.63
2023-05-07T02:48:18.478Z,97400.59
2023-05-07T02:50:46.702Z,97396.69
2023-05-07T02:53:16.476Z,97399.91
2023-05-07T02:55:44.732Z,97398.56
2023-05-07T02:58:13.014Z,97392.03
2023-05-07T03:00:44.420Z,97402.91
2023-05-07T03:03:27.878Z,97391.44
2023-05-07T03:05:56.168Z,97394.28
2023-05-07T03:08:24.498Z,97402.25
2023-05-07T03:10:53.068Z,97397.66
2023-05-07T03:13:21.565Z,97406.72
2023-05-07T03:15:52.029Z,97404.06
2023-05-07T03:18:20.602Z,97406.91
2023-05-07T03:20:50.452Z,97412.28
2023-05-07T03:23:19.993Z,97412.63
2023-05-07T03:25:48.723Z,97408.50
2023-05-07T03:28:17.131Z,97413.22
2023-05-07T03:30:52.831Z,97409.78
2023-05-07T03:33:21.346Z,97420.06
2023-05-07T03:35:50.243Z,97422.84
2023-05-07T03:38:22.878Z,97415.25
2023-05-07T03:40:51.566Z,97423.66
2023-05-07T03:43:20.330Z,97424.59
2023-05-07T03:45:55.966Z,97422.81
2023-05-07T03:48:27.252Z,97424.47
2023-05-07T03:50:59.303Z,97430.75
2023-05-07T03:53:31.392Z,97428.66
2023-05-07T03:55:59.873Z,97434.41
2023-05-07T03:58:29.038Z,97431.47
2023-05-07T04:01:02.147Z,97426.56
2023-05-07T04:03:31.822Z,97438.97
2023-05-07T04:06:01.920Z,97435.84
2023-05-07T04:08:34.093Z,97439.91
2023-05-07T04:11:02.485Z,97439.38
2023-05-07T04:13:33.732Z,97449.50
2023-05-07T04:16:07.041Z,97450.28
2023-05-07T04:18:37.554Z,97439.41
2023-05-07T04:21:07.143Z,97441.97
2023-05-07T04:23:38.362Z,97441.13
2023-05-07T04:26:13.027Z,97448.41
2023-05-07T04:28:44.657Z,97449.16
2023-05-07T04:31:14.583Z,97452.97
2023-05-07T04:33:43.383Z,97453.38
2023-05-07T04:36:15.435Z,97459.94
2023-05-07T04:38:52.721Z,97459.25
2023-05-07T04:41:21.909Z,97462.59
2023-05-07T04:43:50.684Z,97464.69
2023-05-07T04:46:22.550Z,97468.44
2023-05-07T04:48:51.689Z,97468.97
2023-05-07T04:51:20.304Z,97468.72
2023-05-07T04:53:49.341Z,97464.88
2023-05-07T04:56:18.713Z,97474.09
2023-05-07T04:58:52.312Z,97474.72
2023-05-07T05:01:24.268Z,97481.88
2023-05-07T05:03:52.643Z,97487.81
2023-05-07T05:06:21.906Z,97483.88
2023-05-07T05:08:51.365Z,97475.66
2023-05-07T05:11:19.783Z,97486.19
2023-05-07T05:13:49.952Z,97486.78
2023-05-07T05:16:21.658Z,97482.16
2023-05-07T05:18:53.184Z,97484.75
2023-05-07T05:21:21.569Z,97487.19
2023-05-07T05:23:53.018Z,97486.13
2023-05-07T05:26:24.115Z,97494.31
2023-05-07T05:28:52.352Z,97490.41
2023-05-07T05:31:23.405Z,97496.28
2023-05-07T05:33:54.123Z,97485.47
2023-05-07T05:39:12.142Z,97502.78
2023-05-07T05:41:40.531Z,97498.81
2023-05-07T05:44:09.730Z,97514.06
2023-05-07T05:46:38.520Z,97504.25
2023-05-07T05:49:12.064Z,97495.41
2023-05-07T05:51:41.089Z,97498.69
2023-05-07T05:54:09.798Z,97508.47
2023-05-07T05:56:39.253Z,97508.72
2023-05-07T05:59:09.409Z,97504.06
2023-05-07T06:01:38.252Z,97509.69
2023-05-07T06:04:07.173Z,97503.00
2023-05-07T06:06:37.766Z,97507.03
2023-05-07T06:09:05.992Z,97502.50
2023-05-07T06:14:33.188Z,97499.91
2023-05-07T06:17:02.259Z,97494.47
2023-05-07T06:19:30.655Z,97494.06
2023-05-07T06:22:02.435Z,97500.13
2023-05-07T06:24:32.168Z,97493.41
2023-05-07T06:27:01.189Z,97489.44
2023-05-07T06:29:32.624Z,97493.25
2023-05-07T06:32:09.172Z,97496.13
2023-05-07T06:34:38.239Z,97505.59
2023-05-07T06:37:09.636Z,97502.63
2023-05-07T06:39:52.161Z,97506.06
2023-05-07T06:42:20.623Z,97502.75
2023-05-07T06:44:51.533Z,97504.97
2023-05-07T06:47:21.322Z,97496.78
2023-05-07T06:49:53.968Z,97503.56
2023-05-07T06:52:27.252Z,97508.94
2023-05-07T06:54:57.350Z,97506.59
2023-05-07T06:57:27.390Z,97509.59
2023-05-07T06:59:56.459Z,97520.31
2023-05-07T07:02:25.230Z,97517.28
2023-05-07T07:04:54.865Z,97520.81
2023-05-07T07:07:26.371Z,97521.69
2023-05-07T07:09:56.720Z,97524.81
2023-05-07T07:12:27.084Z,97527.34
2023-05-07T07:14:55.473Z,97521.13
2023-05-07T07:17:25.874Z,97519.34
2023-05-07T07:19:55.032Z,97522.78
2023-05-07T07:22:24.235Z,97517.44
2023-05-07T07:24:53.342Z,97531.25
2023-05-07T07:27:23.345Z,97528.97
2023-05-07T07:29:52.203Z,97528.22
2023-05-07T07:32:21.652Z,97526.75
2023-05-07T07:34:50.655Z,97525.59
2023-05-07T07:37:19.247Z,97524.78
2023-05-07T07:39:48.786Z,97538.00
2023-05-07T07:42:17.363Z,97526.00
2023-05-07T07:44:55.933Z,97538.06
2023-05-07T07:47:26.470Z,97528.91
2023-05-07T07:49:55.699Z,97532.66
2023-05-07T07:52:24.743Z,97524.75
2023-05-07T07:54:54.464Z,97526.69
2023-05-07T07:57:26.606Z,97517.84
2023-05-07T07:59:56.716Z,97523.69
2023-05-07T08:02:27.283Z,97522.00
2023-05-07T08:04:59.299Z,97520.19
2023-05-07T08:07:27.906Z,97524.09
2023-05-07T08:13:05.098Z,97527.47
2023-05-07T08:15:38.067Z,97522.31
2023-05-07T08:18:19.298Z,97516.38
2023-05-07T08:20:49.236Z,97517.31
2023-05-07T08:23:22.549Z,97518.56
2023-05-07T08:25:53.363Z,97528.69
2023-05-07T08:28:22.625Z,97520.09
2023-05-07T08:30:52.897Z,97520.66
2023-05-07T08:33:22.263Z,97517.69
2023-05-07T08:35:50.668Z,97525.94
2023-05-07T08:38:19.064Z,97518.94
2023-05-07T08:40:50.950Z,97522.03
2023-05-07T08:43:24.196Z,97528.56
2023-05-07T08:45:56.708Z,97521.22
2023-05-07T08:48:29.788Z,97508.75
2023-05-07T08:51:06.834Z,97513.56
2023-05-07T08:53:35.724Z,97505.94
2023-05-07T08:56:08.109Z,97500.94
2023-05-07T08:58:37.058Z,97502.66
2023-05-07T09:01:10.650Z,97509.78
2023-05-07T09:03:40.571Z,97512.28
2023-05-07T09:06:09.130Z,97508.34
2023-05-07T09:08:37.995Z,97511.69
2023-05-07T09:11:08.077Z,97506.38
2023-05-07T09:13:36.579Z,97501.03
2023-05-07T09:16:14.429Z,97507.34
2023-05-07T09:18:46.308Z,97510.63
2023-05-07T09:21:19.806Z,97511.91
2023-05-07T09:23:51.420Z,97510.69
2023-05-07T09:26:22.361Z,97515.94
2023-05-07T09:28:51.392Z,97515.69
2023-05-07T09:31:21.760Z,97511.13
2023-05-07T09:33:51.289Z,97512.34
2023-05-07T09:36:21.798Z,97507.50
2023-05-07T09:38:52.635Z,97498.84
2023-05-07T09:41:45.774Z,97502.66
2023-05-07T09:44:24.389Z,97495.47
2023-05-07T09:46:57.989Z,97500.69
2023-05-07T09:49:37.297Z,97512.00
2023-05-07T09:52:11.665Z,97508.34
2023-05-07T09:54:51.707Z,97509.03
2023-05-07T09:57:26.622Z,97506.91
2023-05-07T10:00:00.711Z,97509.25
2023-05-07T10:02:36.381Z,97501.75
2023-05-07T10:05:06.181Z,97502.78
2023-05-07T10:07:38.261Z,97494.22
2023-05-07T10:10:11.719Z,97502.91
2023-05-07T10:12:47.002Z,97499.13
2023-05-07T10:15:26.603Z,97501.28
2023-05-07T10:18:02.230Z,97505.09
2023-05-07T10:20:39.750Z,97488.34
2023-05-07T10:23:16.746Z,97491.16
2023-05-07T10:25:53.791Z,97483.63
2023-05-07T10:28:28.272Z,97477.91
2023-05-07T10:31:11.955Z,97475.78
2023-05-07T10:33:56.530Z,97479.84
2023-05-07T10:36:26.488Z,97477.38
2023-05-07T10:38:56.405Z,97481.22
2023-05-07T10:41:25.141Z,97473.69
2023-05-07T10:43:54.285Z,97469.56
2023-05-07T10:46:36.375Z,97472.41
2023-05-07T10:49:16.701Z,97474.03
2023-05-07T10:52:15.890Z,97476.03
2023-05-07T10:55:26.501Z,97472.84
2023-05-07T11:01:05.629Z,97468.66
2023-05-07T11:04:17.106Z,97463.75
2023-05-07T11:07:37.007Z,97460.44
2023-05-07T11:10:13.721Z,97455.75
2023-05-07T11:12:58.561Z,97459.47
2023-05-07T11:15:43.051Z,97457.63
2023-05-07T11:18:49.100Z,97453.06
2023-05-07T11:21:49.406Z,97437.50
2023-05-07T11:24:41.997Z,97448.66
2023-05-07T11:27:11.188Z,97445.56
2023-05-07T11:29:39.752Z,97450.03
2023-05-07T11:32:15.841Z,97447.75
2023-05-07T11:34:53.888Z,97443.28
2023-05-07T11:37:25.748Z,97438.59
2023-05-07T11:40:06.697Z,97440.03
2023-05-07T11:42:35.962Z,97431.94
2023-05-07T11:45:04.525Z,97432.56
2023-05-07T11:47:34.200Z,97439.75
2023-05-07T11:50:05.662Z,97436.03
2023-05-07T11:52:36.949Z,97433.22
2023-05-07T11:55:06.190Z,97431.97
2023-05-07T11:57:36.381Z,97424.25
2023-05-07T12:00:08.284Z,97423.28
2023-05-07T12:02:46.082Z,97415.25
2023-05-07T12:05:15.011Z,97420.63
2023-05-07T12:07:45.676Z,97425.78
2023-05-07T12:10:14.944Z,97428.56
2023-05-07T12:12:44.035Z,97433.47
2023-05-07T12:15:13.088Z,97437.84
2023-05-07T12:17:42.779Z,97433.25
2023-05-07T12:20:12.722Z,97437.50
2023-05-07T12:22:41.125Z,97427.97
2023-05-07T12:25:11.958Z,97436.53
2023-05-07T12:27:42.589Z,97428.72
2023-05-07T12:30:14.050Z,97432.25
2023-05-07T12:32:44.776Z,97421.03
2023-05-07T12:35:13.882Z,97416.53
2023-05-07T12:37:43.481Z,97426.97
2023-05-07T12:40:14.273Z,97428.44
2023-05-07T12:42:46.249Z,97428.56
2023-05-07T12:45:18.528Z,97433.13
2023-05-07T12:47:47.722Z,97427.63
2023-05-07T12:50:16.612Z,97437.34
2023-05-07T12:52:45.725Z,97435.41
2023-05-07T12:55:17.088Z,97432.03
2023-05-07T12:57:47.919Z,97431.16
2023-05-07T13:00:17.088Z,97441.44
2023-05-07T13:02:46.964Z,97443.25
2023-05-07T13:05:16.475Z,97438.50
2023-05-07T13:07:55.400Z,97444.41
2023-05-07T13:10:26.793Z,97458.19
2023-05-07T13:12:55.240Z,97464.25
2023-05-07T13:15:24.490Z,97458.63
2023-05-07T13:17:52.923Z,97477.75
2023-05-07T13:20:21.512Z,97475.81
2023-05-07T13:22:49.931Z,97473.69
2023-05-07T13:25:19.041Z,97469.38
2023-05-07T13:27:59.557Z,97470.88
2023-05-07T13:33:03.721Z,97480.41
2023-05-07T13:35:32.282Z,97497.78
2023-05-07T13:38:00.739Z,97501.56
2023-05-07T13:40:29.157Z,97500.72
2023-05-07T13:42:59.664Z,97527.13
2023-05-07T13:45:35.690Z,97543.13
2023-05-07T13:48:04.422Z,97551.19
2023-05-07T13:50:34.515Z,97557.38
2023-05-07T13:53:02.860Z,97564.38
2023-05-07T13:55:31.864Z,97552.91
2023-05-07T13:58:06.981Z,97545.66
2023-05-07T14:00:35.914Z,97539.84
2023-05-07T14:03:04.304Z,97531.88
2023-05-07T14:05:32.580Z,97525.94
2023-05-07T14:08:01.676Z,97512.84
2023-05-07T14:10:29.828Z,97506.56
2023-05-07T14:12:58.024Z,97505.78
2023-05-07T14:15:27.557Z,97498.63
2023-05-07T14:17:55.715Z,97503.31
2023-05-07T14:20:24.062Z,97493.31
2023-05-07T14:22:52.262Z,97489.72
2023-05-07T14:25:20.612Z,97477.97
2023-05-07T14:27:52.284Z,97494.44
2023-05-07T14:30:20.421Z,97491.72
2023-05-07T14:32:51.079Z,97499.84
2023-05-07T14:35:19.616Z,97504.47
2023-05-07T14:37:47.749Z,97515.03
2023-05-07T14:40:16.458Z,97538.22
2023-05-07T14:42:44.949Z,97539.59
2023-05-07T14:45:13.970Z,97545.25
2023-05-07T14:47:42.603Z,97540.91
2023-05-07T14:50:16.931Z,97552.09
2023-05-07T14:52:47.545Z,97539.72
2023-05-07T14:55:21.926Z,97529.47
2023-05-07T14:57:50.276Z,97538.06
2023-05-07T15:00:19.035Z,97536.50
2023-05-07T15:02:47.551Z,97531.84
2023-05-07T15:05:18.529Z,97530.88
2023-05-07T15:07:47.362Z,97529.28
2023-05-07T15:10:31.968Z,97537.09
2023-05-07T15:13:00.340Z,97530.41
2023-05-07T15:15:29.130Z,97531.19
2023-05-07T15:17:57.830Z,97524.91
2023-05-07T15:20:28.035Z,97520.06
2023-05-07T15:22:56.895Z,97519.00
2023-05-07T15:25:26.984Z,97522.69
2023-05-07T15:27:57.078Z,97506.53
2023-05-07T15:30:26.452Z,97515.66
2023-05-07T15:32:57.186Z,97510.59
2023-05-07T15:35:29.085Z,97523.81
2023-05-07T15:37:59.031Z,97528.66
2023-05-07T15:40:28.289Z,97514.31
2023-05-07T15:42:58.637Z,97526.75
2023-05-07T15:45:28.087Z,97521.28
2023-05-07T15:47:57.405Z,97523.66
2023-05-07T15:50:30.548Z,97523.97
2023-05-07T15:53:00.022Z,97531.47
2023-05-07T15:55:29.209Z,97530.28
2023-05-07T15:58:01.568Z,97532.84
2023-05-07T16:00:31.288Z,97526.78
2023-05-07T16:03:02.612Z,97522.75
2023-05-07T16:05:34.500Z,97530.97
2023-05-07T16:08:11.898Z,97533.91
2023-05-07T16:10:53.113Z,97540.06
2023-05-07T16:13:31.696Z,97537.72
2023-05-07T16:16:08.822Z,97531.03
2023-05-07T16:22:50.466Z,97541.06
2023-05-07T16:25:21.035Z,97550.34
2023-05-07T16:27:50.232Z,97552.16
2023-05-07T16:30:21.452Z,97552.84
2023-05-07T16:32:52.541Z,97556.75
2023-05-07T16:35:22.271Z,97550.63
2023-05-07T16:37:53.688Z,97548.41
2023-05-07T16:40:23.892Z,97552.53
2023-05-07T16:42:55.552Z,97552.50
2023-05-07T16:45:25.028Z,97561.72
2023-05-07T16:47:54.331Z,97559.53
2023-05-07T16:50:24.105Z,97571.75
2023-05-07T16:52:56.188Z,97572.69
2023-05-07T16:55:25.625Z,97575.75
2023-05-07T16:57:54.842Z,97580.78
2023-05-07T17:00:26.415Z,97586.50
2023-05-07T17:02:59.232Z,97591.47
2023-05-07T17:05:29.338Z,97596.31
2023-05-07T17:08:01.989Z,97597.63
2023-05-07T17:10:31.130Z,97613.72
2023-05-07T17:13:00.385Z,97610.78
2023-05-07T17:15:29.507Z,97621.56
2023-05-07T17:17:59.015Z,97623.78
2023-05-07T17:20:29.293Z,97625.66
2023-05-07T17:22:58.529Z,97626.28
2023-05-07T17:25:29.065Z,97626.34
2023-05-07T17:27:58.226Z,97630.38
2023-05-07T17:30:27.521Z,97630.75
2023-05-07T17:33:06.277Z,97635.84
2023-05-07T17:35:42.312Z,97635.91
2023-05-07T17:38:11.949Z,97636.81
2023-05-07T17:40:42.994Z,97627.00
2023-05-07T17:43:12.310Z,97633.38
2023-05-07T17:45:41.662Z,97637.88
2023-05-07T17:48:17.048Z,97641.94
2023-05-07T17:50:48.841Z,97639.56
2023-05-07T17:53:20.082Z,97630.97
2023-05-07T17:55:52.988Z,97643.13
2023-05-07T17:58:24.544Z,97644.81
2023-05-07T18:00:56.370Z,97634.88
2023-05-07T18:03:28.652Z,97646.66
2023-05-07T18:05:58.982Z,97651.59
2023-05-07T18:08:28.074Z,97652.44
2023-05-07T18:10:59.828Z,97654.97
2023-05-07T18:13:29.826Z,97661.38
2023-05-07T18:15:59.158Z,97661.31
2023-05-07T18:18:31.402Z,97666.41
2023-05-07T18:21:01.631Z,97670.44
2023-05-07T18:23:30.772Z,97678.50
2023-05-07T18:26:01.503Z,97675.31
2023-05-07T18:28:30.850Z,97681.84
2023-05-07T18:31:00.149Z,97680.28
2023-05-07T18:33:29.378Z,97695.47
2023-05-07T18:35:58.718Z,97684.16
2023-05-07T18:38:28.357Z,97686.53
2023-05-07T18:41:05.053Z,97692.88
2023-05-07T18:43:35.385Z,97686.13
2023-05-07T18:46:04.768Z,97691.25
2023-05-07T18:48:34.338Z,97692.88
2023-05-07T18:51:03.645Z,97699.81
2023-05-07T18:53:33.024Z,97700.69
2023-05-07T18:56:04.797Z,97704.25
2023-05-07T18:58:35.230Z,97707.81
2023-05-07T19:01:08.889Z,97710.69
2023-05-07T19:03:38.338Z,97719.19
2023-05-07T19:06:07.821Z,97722.13
2023-05-07T19:08:36.954Z,97727.03
2023-05-07T19:11:08.062Z,97721.81
2023-05-07T19:13:37.199Z,97729.94
2023-05-07T19:16:10.817Z,97728.59
2023-05-07T19:18:40.013Z,97729.09
2023-05-07T19:21:09.538Z,97729.84
2023-05-07T19:23:42.387Z,97737.25
2023-05-07T19:26:13.661Z,97734.72
2023-05-07T19:28:45.541Z,97739.72
2023-05-07T19:31:21.955Z,97734.28
2023-05-07T19:33:51.697Z,97747.94
2023-05-07T19:36:21.076Z,97749.34
2023-05-07T19:38:53.720Z,97743.34
2023-05-07T19:41:24.216Z,97738.94
2023-05-07T19:43:53.292Z,97741.47
2023-05-07T19:46:22.445Z,97745.69
2023-05-07T19:48:51.675Z,97742.25
2023-05-07T19:51:20.842Z,97734.41
2023-05-07T19:53:49.995Z,97742.00
2023-05-07T19:56:19.254Z,97744.28
2023-05-07T19:58:51.132Z,97746.31
2023-05-07T20:01:20.493Z,97749.19
2023-05-07T20:03:49.808Z,97742.88
2023-05-07T20:06:19.074Z,97743.34
2023-05-07T20:08:48.250Z,97746.44
2023-05-07T20:11:17.679Z,97749.47
2023-05-07T20:13:48.008Z,97750.59
2023-05-07T20:16:19.008Z,97745.84
2023-05-07T20:18:48.225Z,97744.03
2023-05-07T20:21:17.633Z,97747.72
2023-05-07T20:23:46.849Z,97751.56
2023-05-07T20:26:16.052Z,97748.75
2023-05-07T20:28:45.446Z,97743.78
2023-05-07T20:31:14.869Z,97749.34
2023-05-07T20:33:45.570Z,97757.34
2023-05-07T20:36:14.872Z,97759.16
2023-05-07T20:38:44.742Z,97742.13
2023-05-07T20:41:15.017Z,97739.75
2023-05-07T20:43:44.379Z,97740.56
2023-05-07T20:46:15.530Z,97744.00
2023-05-07T20:48:46.390Z,97749.13
2023-05-07T20:51:16.375Z,97746.63
2023-05-07T20:53:46.849Z,97744.84
2023-05-07T20:56:16.763Z,97751.38
2023-05-07T20:58:45.732Z,97741.09
2023-05-07T21:01:14.206Z,97749.84
2023-05-07T21:03:42.666Z,97746.88
2023-05-07T21:06:12.516Z,97746.13
2023-05-07T21:08:40.750Z,97743.06
2023-05-07T21:11:10.529Z,97743.50
2023-05-07T21:13:38.923Z,97744.25
2023-05-07T21:16:07.386Z,97739.84
2023-05-07T21:18:35.637Z,97748.19
2023-05-07T21:21:10.738Z,97746.91
2023-05-07T21:23:45.124Z,97750.13
2023-05-07T21:26:19.575Z,97744.84
2023-05-07T21:28:49.330Z,97743.66
2023-05-07T21:31:17.890Z,97744.31
2023-05-07T21:33:46.329Z,97737.03
2023-05-07T21:36:14.697Z,97746.59
2023-05-07T21:38:45.090Z,97746.13
2023-05-07T21:41:13.533Z,97740.13
2023-05-07T21:43:41.768Z,97744.31
2023-05-07T21:46:10.462Z,97752.84
2023-05-07T21:48:40.040Z,97742.97
2023-05-07T21:51:09.602Z,97752.06
2023-05-07T21:53:38.077Z,97740.81
2023-05-07T21:56:08.108Z,97751.09
2023-05-07T21:58:36.309Z,97746.97
2023-05-07T22:01:05.456Z,97746.22
2023-05-07T22:03:33.833Z,97748.53
2023-05-07T22:06:02.111Z,97742.97
2023-05-07T22:08:30.515Z,97743.81
2023-05-07T22:10:58.687Z,97741.25
2023-05-07T22:13:28.636Z,97743.19
2023-05-07T22:15:58.785Z,97744.91
2023-05-07T22:18:27.307Z,97748.56
2023-05-07T22:20:55.558Z,97750.00
2023-05-07T22:23:23.819Z,97745.56
2023-05-07T22:25:51.913Z,97740.31
2023-05-07T22:28:20.169Z,97750.63
2023-05-07T22:30:49.713Z,97758.69
2023-05-07T22:33:17.950Z,97764.03
2023-05-07T22:35:46.108Z,97767.63
2023-05-07T22:38:14.264Z,97756.53
2023-05-07T22:40:42.474Z,97753.34
2023-05-07T22:43:10.772Z,97755.38
2023-05-07T22:45:39.060Z,97757.25
2023-05-07T22:48:09.278Z,97765.53
2023-05-07T22:50:38.733Z,97762.75
2023-05-07T22:53:07.405Z,97757.47
2023-05-07T22:55:36.185Z,97752.97
2023-05-07T22:58:04.389Z,97760.16
2023-05-07T23:00:32.498Z,97749.66
2023-05-07T23:03:00.735Z,97766.19
2023-05-07T23:05:30.381Z,97766.06
2023-05-07T23:07:58.547Z,97766.97
2023-05-07T23:10:26.679Z,97757.47
2023-05-07T23:12:54.874Z,97760.59
2023-05-07T23:15:23.369Z,97766.38
2023-05-07T23:17:51.677Z,97764.75
2023-05-07T23:20:20.116Z,97768.59
2023-05-07T23:22:49.829Z,97766.81
2023-05-07T23:25:18.362Z,97767.00
2023-05-07T23:27:46.994Z,97765.38
2023-05-07T23:30:15.848Z,97763.25
2023-05-07T23:32:44.179Z,97759.56
2023-05-07T23:35:12.540Z,97761.03
2023-05-07T23:37:40.754Z,97754.31
2023-05-07T23:40:11.492Z,97753.28
2023-05-07T23:42:39.898Z,97758.97
2023-05-07T23:45:09.399Z,97752.63
2023-05-07T23:47:37.602Z,97747.91
2023-05-07T23:50:06.503Z,97750.44
2023-05-07T23:52:34.696Z,97759.31
2023-05-07T23:55:02.966Z,97761.81
2023-05-07T23:57:32.507Z,97759.41
